Andover, SD

10:21 AM CST on December 18, 2014 (GMT -0600)
KSDGROTO1 | Change Station
CLOSE
Current Station
Personal Weather Station
Location: Groton, SD
Elevation: 1295 ft
Nearby Weather Stations

Elev 1295 ft 45.45 °N, 98.10 °W | Updated 12 minutes ago

Overcast
Overcast
20.7 °F
Feels Like 14 °F
N
5.0
Wind Variable Wind from SSE
Gusts 12.0 mph

Today
High -- | Low -- °F
--% Chance of Precip.
Yesterday
High -- | Low -- °F
Precip. -- in
8:06 AM 4:50 PM
Waning Crescent, 13% visible
Pressure 30.26 in
Visibility 10.0 miles
Clouds Overcast 1700 ft
Windchill 14 °F
Dew Point 17 °F
Humidity 85%
Rainfall 0.00 in
Snow Depth Not available.
UV 0 out of 12
Pollen .10 out of 12
Air Quality Not available.
Flu Activity Not available.
METAR KABR 181553Z AUTO 17010KT 10SM OVC017 M06/M09 A3019 RMK AO2 SLP246 T10611094

More Conditions Fewer Conditions

Pressure 30.26 in
Visibility 10.0 miles
Clouds Overcast 1700 ft
Windchill 14 °F
Dew Point 17 °F
Humidity 85%
Rainfall 0.00 in
Snow Depth Not available.
UV 0 out of 12
Pollen .10 out of 12
Air Quality Not available.
Flu Activity Not available.
METAR KABR 181553Z AUTO 17010KT 10SM OVC017 M06/M09 A3019 RMK AO2 SLP246 T10611094

More Conditions Fewer Conditions

10-Day Weather Forecast

Almanac

Astronomy

Dec. 18, 2014 Rise Set
Actual Time
Civil Twilight
Nautical Twilight
Astronomical Twilight
Moon
Length of Visible Light
Length of Day
Tomorrow will be .
, % of the Moon is Illuminated

Today's Extremes

State Highs State Lows

Community

WunderPhotos

Upload Photos

1,778,955 photos uploaded!

WunderBlogs® & News

Nearby

Air Quality

  Air Quality AQ Index Pollutant
Not available.

Snow Depth

Station Depth Elevation

Earthquake Activity

City Distance Mag. Time & Date
Minimum magnitude displayed is 2.5.

Coastal Water Temperatures

Place Temperature

Nearby Weather Stations